Time;durP1;ratioP1;P1;durP2;ratioP2;P2;SDS_P1;SDS_P2;PMS_P1;PMS_P2;Temp;Humidity;BMP_temperature;BMP_pressure;BME280_temperature;BME280_humidity;BME280_pressure;Samples;Min_cycle;Max_cycle;Signal;HPM_P1;HPM_P2
2022/09/09 00:01:02;;;;;;;3.60;1.38;;;;;;;17.95;66.98;100146.63;4101498;28;20035;-66
2022/09/09 00:03:12;;;;;;;3.33;1.42;;;;;;;17.98;67.02;100145.72;4102128;28;20387;-67
2022/09/09 00:05:26;;;;;;;4.40;1.30;;;;;;;17.91;67.53;100149.38;4107556;28;20543;-67
2022/09/09 00:07:41;;;;;;;2.55;1.05;;;;;;;17.83;68.05;100156.50;4110657;28;20034;-67
2022/09/09 00:09:48;;;;;;;3.28;1.50;;;;;;;17.87;67.64;100152.91;4100656;28;20629;-67
2022/09/09 00:11:53;;;;;;;4.30;1.33;;;;;;;17.80;67.60;100158.31;4109064;28;20057;-67
2022/09/09 00:14:02;;;;;;;4.53;1.60;;;;;;;17.90;67.59;100145.00;4084390;29;20498;-67
2022/09/09 00:16:16;;;;;;;3.05;1.20;;;;;;;17.90;67.61;100138.00;4107760;28;20493;-67
2022/09/09 00:18:25;;;;;;;6.60;1.33;;;;;;;17.91;67.60;100141.47;4099782;28;20039;-67
2022/09/09 00:20:32;;;;;;;6.43;1.42;;;;;;;17.87;67.75;100148.53;4099690;28;20051;-67
2022/09/09 00:22:37;;;;;;;4.43;1.10;;;;;;;17.80;67.86;100142.53;4105531;28;20035;-67
2022/09/09 00:24:45;;;;;;;3.13;1.25;;;;;;;17.79;67.91;100137.31;4099079;28;20050;-67
2022/09/09 00:26:57;;;;;;;3.45;1.25;;;;;;;17.87;68.09;100142.41;4098902;28;20051;-67
2022/09/09 00:29:06;;;;;;;8.43;1.98;;;;;;;17.91;67.93;100133.59;4125199;28;20045;-67
2022/09/09 00:31:14;;;;;;;3.38;1.40;;;;;;;17.96;67.65;100142.25;4102611;28;20039;-67
2022/09/09 00:33:22;;;;;;;6.53;2.13;;;;;;;18.02;67.34;100139.50;4113470;28;20049;-68
2022/09/09 00:35:28;;;;;;;4.70;2.25;;;;;;;18.06;67.28;100133.25;4102879;28;20050;-66
2022/09/09 00:37:33;;;;;;;4.57;1.35;;;;;;;18.02;67.42;100138.59;4114626;28;20050;-66
2022/09/09 00:39:41;;;;;;;5.90;1.67;;;;;;;18.03;67.72;100128.03;4098188;28;20040;-66
2022/09/09 00:41:59;;;;;;;8.02;2.25;;;;;;;18.07;67.21;100120.97;4103609;28;20039;-66
2022/09/09 00:44:13;;;;;;;6.13;1.42;;;;;;;18.12;67.53;100117.34;4082669;29;20051;-66
2022/09/09 00:46:33;;;;;;;3.93;1.50;;;;;;;18.18;67.06;100120.72;4086437;29;20043;-66
2022/09/09 00:48:46;;;;;;;6.03;1.60;;;;;;;18.20;66.97;100130.31;4099897;28;20040;-66
2022/09/09 00:50:55;;;;;;;5.68;1.45;;;;;;;18.10;66.97;100132.28;4116469;28;20039;-66
2022/09/09 00:53:12;;;;;;;4.03;1.63;;;;;;;18.11;67.46;100128.75;4106612;28;20051;-66
2022/09/09 00:55:22;;;;;;;4.15;1.65;;;;;;;18.09;67.62;100130.56;4115064;28;20043;-66
2022/09/09 00:57:29;;;;;;;7.97;2.78;;;;;;;18.19;67.28;100135.59;4114624;28;20610;-66
2022/09/09 00:59:43;;;;;;;3.78;1.42;;;;;;;18.12;67.35;100137.50;4113332;28;20054;-66
2022/09/09 01:01:47;;;;;;;7.60;1.40;;;;;;;18.07;67.67;100140.22;4097886;28;20386;-66
2022/09/09 01:03:54;;;;;;;6.15;1.65;;;;;;;18.12;66.99;100129.59;4099583;28;20046;-66
2022/09/09 01:06:03;;;;;;;4.70;1.30;;;;;;;18.07;67.50;100134.13;4098533;28;20102;-66
2022/09/09 01:08:43;;;;;;;7.05;1.63;;;;;;;17.98;67.28;100137.81;4100844;28;20098;-66
2022/09/09 01:10:52;;;;;;;4.43;1.33;;;;;;;17.95;67.57;100136.09;4103968;28;20047;-66
2022/09/09 01:13:05;;;;;;;3.08;0.95;;;;;;;17.94;67.82;100134.38;4115347;28;20050;-66
2022/09/09 01:15:16;;;;;;;8.15;1.80;;;;;;;17.99;67.64;100131.66;4100972;28;20469;-66
2022/09/09 01:17:31;;;;;;;8.10;1.77;;;;;;;18.01;67.98;100137.75;4099870;28;20563;-66
2022/09/09 01:19:51;;;;;;;5.53;2.10;;;;;;;18.10;67.56;100132.28;4097209;29;20155;-67
2022/09/09 01:22:01;;;;;;;5.03;1.67;;;;;;;18.04;67.54;100137.69;4113471;28;20038;-66
2022/09/09 01:24:23;;;;;;;4.63;1.55;;;;;;;18.07;67.67;100147.28;4100749;28;20099;-66
2022/09/09 01:26:37;;;;;;;2.80;1.20;;;;;;;18.00;67.59;100148.31;4099524;28;20066;-67
2022/09/09 01:28:46;;;;;;;5.43;1.58;;;;;;;17.96;67.97;100147.53;4112865;28;20043;-67
2022/09/09 01:30:51;;;;;;;4.45;1.50;;;;;;;17.94;67.80;100141.41;4113795;28;20089;-67
2022/09/09 01:33:00;;;;;;;2.65;1.40;;;;;;;17.89;67.82;100136.22;4080134;29;20425;-67
2022/09/09 01:35:04;;;;;;;4.55;1.60;;;;;;;17.95;67.78;100137.88;4100148;28;20047;-67
2022/09/09 01:37:09;;;;;;;4.22;1.80;;;;;;;17.92;68.14;100136.19;4124269;28;20043;-66
2022/09/09 01:39:13;;;;;;;5.10;1.80;;;;;;;17.80;68.38;100142.53;4106777;28;20420;-67
2022/09/09 01:41:17;;;;;;;6.68;1.42;;;;;;;17.88;68.28;100139.72;4113615;28;20587;-66
2022/09/09 01:43:36;;;;;;;9.00;2.15;;;;;;;17.79;68.66;100140.78;4108127;28;20552;-66
2022/09/09 01:45:42;;;;;;;1.95;1.30;;;;;;;17.87;68.28;100147.66;4086203;29;20046;-66
2022/09/09 01:47:46;;;;;;;5.47;2.38;;;;;;;17.85;68.26;100141.56;4115672;28;20441;-67
2022/09/09 01:49:54;;;;;;;3.92;1.85;;;;;;;17.89;68.33;100141.47;4114323;28;20039;-67
2022/09/09 01:52:01;;;;;;;7.70;2.25;;;;;;;17.88;68.29;100144.13;4120062;28;20051;-67
2022/09/09 01:54:09;;;;;;;3.45;1.23;;;;;;;17.85;68.44;100144.22;4117402;28;20058;-67
2022/09/09 01:56:23;;;;;;;7.15;1.52;;;;;;;17.88;68.65;100138.88;4101353;28;20046;-67
2022/09/09 01:58:34;;;;;;;5.30;1.48;;;;;;;17.95;67.85;100140.50;4082529;29;20047;-67
2022/09/09 02:00:46;;;;;;;3.47;1.70;;;;;;;17.86;68.44;100138.03;4097120;28;20039;-67
2022/09/09 02:03:00;;;;;;;4.28;1.35;;;;;;;17.81;68.41;100138.13;4098078;29;20154;-67
2022/09/09 02:05:21;;;;;;;6.07;1.30;;;;;;;17.82;68.21;100141.66;4097176;29;20130;-67
2022/09/09 02:07:38;;;;;;;5.75;1.55;;;;;;;17.89;68.35;100140.63;4081651;29;20047;-67
2022/09/09 02:09:51;;;;;;;3.55;1.65;;;;;;;17.95;68.09;100149.25;4097204;29;20049;-67
2022/09/09 02:12:07;;;;;;;6.72;1.92;;;;;;;17.98;68.17;100150.13;4106368;28;20039;-67
2022/09/09 02:14:21;;;;;;;4.75;1.50;;;;;;;18.00;67.67;100154.41;4129166;28;20468;-66
2022/09/09 02:16:31;;;;;;;5.40;1.33;;;;;;;17.90;68.33;100159.03;4129463;28;20042;-66
2022/09/09 02:18:41;;;;;;;4.00;1.70;;;;;;;17.98;67.86;100145.72;4097209;29;20070;-67
2022/09/09 02:20:47;;;;;;;5.57;1.83;;;;;;;17.94;68.27;100149.28;4099045;28;20043;-66
2022/09/09 02:22:52;;;;;;;4.05;1.40;;;;;;;17.88;68.06;100144.13;4096601;29;20529;-66
2022/09/09 02:25:00;;;;;;;3.83;1.42;;;;;;;17.91;67.82;100144.09;4096970;29;20078;-66
2022/09/09 02:27:08;;;;;;;8.90;1.65;;;;;;;17.85;67.95;100144.22;4129246;28;20046;-66
2022/09/09 02:29:17;;;;;;;5.93;1.50;;;;;;;17.93;67.72;100142.28;4098288;28;20050;-66
2022/09/09 02:31:22;;;;;;;4.60;1.13;;;;;;;17.90;68.08;100139.72;4112308;28;20273;-66
2022/09/09 02:33:34;;;;;;;4.05;1.20;;;;;;;17.81;68.27;100156.53;4113331;28;20501;-66
2022/09/09 02:35:40;;;;;;;3.92;1.40;;;;;;;17.72;68.53;100144.44;4117939;28;20050;-66
2022/09/09 02:37:45;;;;;;;;;;;;;;;17.59;68.92;100148.22;4113749;28;20093;-66
2022/09/09 02:39:48;;;;;;;4.60;1.45;;;;;;;17.61;68.89;100151.69;4113091;28;19922;-67
2022/09/09 02:41:55;;;;;;;9.02;1.85;;;;;;;17.63;68.50;100149.91;4110348;28;20039;-66
2022/09/09 02:44:06;;;;;;;5.30;1.33;;;;;;;17.71;68.08;100155.88;4097530;28;20081;-66
2022/09/09 02:46:20;;;;;;;6.03;1.58;;;;;;;17.66;68.41;100149.84;4104410;28;20123;-66
2022/09/09 02:48:31;;;;;;;4.27;1.77;;;;;;;17.59;68.54;100153.47;4107251;28;20101;-66
2022/09/09 02:50:42;;;;;;;4.43;1.40;;;;;;;17.63;68.36;100155.16;4112298;28;20283;-66
2022/09/09 02:52:59;;;;;;;3.85;1.40;;;;;;;17.55;68.61;100157.06;4103488;28;20543;-66
2022/09/09 02:55:10;;;;;;;4.70;1.40;;;;;;;17.63;67.95;100136.75;4132050;28;20493;-66
2022/09/09 02:57:17;;;;;;;3.85;1.33;;;;;;;17.63;68.25;100134.97;4132411;28;20125;-66
2022/09/09 02:59:23;;;;;;;6.00;1.10;;;;;;;17.67;68.00;100140.16;4132323;28;20050;-66
2022/09/09 03:01:27;;;;;;;4.95;1.30;;;;;;;17.70;67.86;100138.38;4117202;28;20049;-66
2022/09/09 03:03:31;;;;;;;5.05;1.25;;;;;;;17.67;68.23;100130.53;4100392;28;20039;-66
2022/09/09 03:05:38;;;;;;;2.47;1.13;;;;;;;17.64;67.83;100130.59;4086044;29;20127;-66
2022/09/09 03:07:43;;;;;;;3.20;1.27;;;;;;;17.58;68.08;100128.06;4124991;28;20053;-66
2022/09/09 03:09:45;;;;;;;4.18;1.30;;;;;;;17.50;68.27;100130.88;4132537;28;20582;-66
2022/09/09 03:11:49;;;;;;;3.42;1.42;;;;;;;17.45;68.63;100136.22;4132112;28;20524;-66
2022/09/09 03:13:53;;;;;;;7.55;2.15;;;;;;;17.51;68.48;100132.59;4100076;29;20039;-66
2022/09/09 03:15:56;;;;;;;1.80;0.83;;;;;;;17.33;68.66;100141.69;4131156;28;20189;-66
2022/09/09 03:18:00;;;;;;;3.38;1.00;;;;;;;17.28;69.06;100130.41;4115733;28;20382;-66
2022/09/09 03:20:03;;;;;;;6.87;1.20;;;;;;;17.39;68.71;100131.09;4103241;28;20049;-66
2022/09/09 03:22:10;;;;;;;6.60;1.50;;;;;;;17.50;68.24;100132.63;4100733;28;20035;-66
2022/09/09 03:24:16;;;;;;;3.03;0.90;;;;;;;17.39;68.67;100141.59;4115858;28;20047;-66
2022/09/09 03:26:19;;;;;;;9.15;1.70;;;;;;;17.44;68.76;100136.25;4131392;28;20043;-67
2022/09/09 03:28:23;;;;;;;3.63;1.35;;;;;;;17.32;68.99;100137.34;4131856;28;20081;-67
2022/09/09 03:30:28;;;;;;;4.88;1.98;;;;;;;17.26;69.01;100137.47;4098854;28;20477;-67
2022/09/09 03:32:32;;;;;;;5.22;1.30;;;;;;;17.27;68.91;100132.19;4104062;28;20042;-67
2022/09/09 03:34:34;;;;;;;5.28;1.33;;;;;;;17.34;68.93;100132.06;4100645;28;20039;-67
2022/09/09 03:36:37;;;;;;;4.45;1.23;;;;;;;17.32;68.77;100136.47;4131460;28;20431;-66
2022/09/09 03:38:42;;;;;;;5.70;1.20;;;;;;;17.34;68.69;100137.31;4115299;28;20142;-67
2022/09/09 03:40:53;;;;;;;2.65;1.25;;;;;;;17.39;68.37;100138.09;4096920;28;20043;-67
2022/09/09 03:42:57;;;;;;;3.95;1.15;;;;;;;17.34;68.79;100135.56;4129237;28;20136;-66
2022/09/09 03:45:04;;;;;;;7.35;1.83;;;;;;;17.39;68.58;100136.34;4117283;28;20456;-65
2022/09/09 03:47:10;;;;;;;5.28;1.33;;;;;;;17.26;68.68;100140.09;4109268;28;20043;-66
2022/09/09 03:49:13;;;;;;;4.88;1.10;;;;;;;17.24;68.93;100141.88;4114112;28;20034;-65
2022/09/09 03:51:17;;;;;;;6.38;1.05;;;;;;;17.27;68.33;100141.81;4105795;28;20035;-65
2022/09/09 03:53:24;;;;;;;5.25;1.10;;;;;;;17.14;68.58;100142.94;4131506;28;20062;-65
2022/09/09 03:55:28;;;;;;;7.78;1.45;;;;;;;17.21;68.37;100134.91;4104357;28;20130;-65
2022/09/09 03:57:31;;;;;;;3.85;1.40;;;;;;;17.23;68.43;100145.38;4099515;28;20095;-65
2022/09/09 03:59:34;;;;;;;3.10;1.27;;;;;;;17.08;68.95;100142.16;4099423;29;20110;-65
2022/09/09 04:01:38;;;;;;;7.97;1.23;;;;;;;17.04;68.72;100152.72;4107529;28;20039;-66
2022/09/09 04:03:42;;;;;;;6.30;1.30;;;;;;;16.98;68.66;100151.09;4130618;28;20042;-66
2022/09/09 04:05:45;;;;;;;8.30;1.80;;;;;;;16.98;69.08;100147.59;4113827;28;20432;-66
2022/09/09 04:07:48;;;;;;;3.78;1.05;;;;;;;16.92;69.38;100140.69;4110653;28;20058;-66
2022/09/09 04:09:51;;;;;;;5.82;1.40;;;;;;;16.97;69.41;100130.09;4130518;28;20127;-66
2022/09/09 04:11:56;;;;;;;3.63;1.20;;;;;;;17.02;68.99;100131.75;4102195;28;20054;-66
2022/09/09 04:13:58;;;;;;;6.18;1.40;;;;;;;17.02;69.20;100137.00;4129071;28;20043;-66
2022/09/09 04:16:04;;;;;;;6.20;1.30;;;;;;;17.02;68.87;100131.75;4129179;28;20052;-66
2022/09/09 04:18:12;;;;;;;3.13;0.85;;;;;;;16.88;69.46;100139.00;4112291;28;20419;-66
2022/09/09 04:20:20;;;;;;;4.80;0.95;;;;;;;17.05;69.15;100130.84;4100401;28;20031;-66
2022/09/09 04:22:23;;;;;;;4.30;0.98;;;;;;;17.02;69.34;100142.25;4094526;28;20035;-66
2022/09/09 04:24:27;;;;;;;3.95;1.15;;;;;;;17.00;69.15;100143.19;4093670;29;20040;-65
2022/09/09 04:26:30;;;;;;;3.28;0.88;;;;;;;16.92;69.25;100140.69;4111557;28;20042;-65
2022/09/09 04:28:36;;;;;;;2.25;1.00;;;;;;;17.04;69.26;100145.75;4099122;28;20039;-66
2022/09/09 04:30:42;;;;;;;2.95;1.20;;;;;;;16.94;69.22;100141.53;4129777;28;20042;-65
2022/09/09 04:32:45;;;;;;;8.65;1.00;;;;;;;17.00;69.27;100138.81;4112899;28;20125;-65
2022/09/09 04:34:48;;;;;;;1.42;0.70;;;;;;;17.00;69.03;100146.69;4129621;28;20400;-65
2022/09/09 04:36:52;;;;;;;3.70;0.82;;;;;;;16.98;69.08;100142.34;4114394;28;20042;-65
2022/09/09 04:38:55;;;;;;;6.95;1.13;;;;;;;17.02;68.96;100146.66;4097381;28;20472;-66
2022/09/09 04:40:58;;;;;;;3.72;1.13;;;;;;;16.96;68.93;100150.25;4133739;28;20034;-65
2022/09/09 04:43:04;;;;;;;4.18;1.48;;;;;;;16.95;68.88;100159.00;4095995;29;20420;-65
2022/09/09 04:45:11;;;;;;;1.98;0.70;;;;;;;16.98;68.85;100165.97;4094999;28;20039;-65
2022/09/09 04:47:14;;;;;;;2.33;0.93;;;;;;;16.93;69.08;100169.53;4097944;28;20502;-65
2022/09/09 04:49:17;;;;;;;3.03;0.90;;;;;;;16.94;69.19;100175.69;4114386;28;20050;-68
2022/09/09 04:51:20;;;;;;;6.50;1.25;;;;;;;17.01;69.03;100174.69;4123101;28;20042;-66
2022/09/09 04:53:25;;;;;;;7.38;1.33;;;;;;;17.13;68.90;100170.09;4104841;28;20575;-65
2022/09/09 04:55:28;;;;;;;2.97;0.77;;;;;;;17.09;68.52;100172.78;4114329;28;20038;-65
2022/09/09 04:57:31;;;;;;;2.60;0.73;;;;;;;17.06;68.62;100170.19;4098721;28;20051;-66
2022/09/09 04:59:34;;;;;;;3.22;1.10;;;;;;;17.15;68.36;100173.56;4122210;28;20453;-66
2022/09/09 05:01:40;;;;;;;6.18;1.10;;;;;;;17.23;67.96;100164.66;4108766;28;20046;-66
2022/09/09 05:03:45;;;;;;;3.72;1.00;;;;;;;17.18;68.03;100173.50;4097937;29;20043;-65
2022/09/09 05:05:50;;;;;;;5.47;1.00;;;;;;;17.21;67.77;100169.06;4097032;28;20043;-66
2022/09/09 05:07:53;;;;;;;3.80;1.30;;;;;;;17.21;68.27;100165.56;4095778;28;20094;-66
2022/09/09 05:09:56;;;;;;;9.52;1.30;;;;;;;17.26;68.15;100171.63;4099674;28;20102;-66
2022/09/09 05:12:00;;;;;;;3.03;1.30;;;;;;;17.14;67.99;100174.47;4081969;29;20123;-66
2022/09/09 05:14:12;;;;;;;4.32;1.15;;;;;;;17.15;68.10;100177.06;4111224;28;20046;-65
2022/09/09 05:16:15;;;;;;;2.45;1.05;;;;;;;17.15;68.11;100182.31;4080943;29;20076;-66
2022/09/09 05:18:22;;;;;;;2.25;0.70;;;;;;;17.06;68.17;100180.72;4113693;28;20046;-66
2022/09/09 05:20:24;;;;;;;6.50;1.25;;;;;;;16.97;68.46;100175.63;4110354;28;20090;-65
2022/09/09 05:22:27;;;;;;;6.35;1.10;;;;;;;17.00;68.54;100183.44;4113128;28;20042;-66
2022/09/09 05:24:32;;;;;;;4.53;0.82;;;;;;;17.06;68.62;100183.34;4082693;29;20043;-66
2022/09/09 05:26:36;;;;;;;6.70;1.30;;;;;;;17.18;68.35;100184.88;4097902;28;20054;-65
2022/09/09 05:28:39;;;;;;;3.65;0.90;;;;;;;17.23;67.90;100193.56;4113924;28;20042;-65
2022/09/09 05:30:42;;;;;;;2.00;0.70;;;;;;;17.25;67.65;100191.75;4097174;28;20497;-67
2022/09/09 05:32:44;;;;;;;4.57;1.02;;;;;;;17.23;67.89;100197.94;4081624;29;20048;-65
2022/09/09 05:34:49;;;;;;;2.73;0.73;;;;;;;17.21;67.78;100207.59;4097497;28;20174;-66
2022/09/09 05:36:53;;;;;;;2.97;0.65;;;;;;;17.27;68.13;100200.50;4112620;28;20066;-66
2022/09/09 05:38:58;;;;;;;2.20;0.70;;;;;;;17.26;68.10;100200.53;4129522;28;20038;-66
2022/09/09 05:41:03;;;;;;;;;;;;;;;17.11;68.20;100188.50;4081547;29;20044;-66
2022/09/09 05:43:06;;;;;;;3.60;1.13;;;;;;;17.10;68.57;100192.91;4110224;28;19992;-66
2022/09/09 05:45:10;;;;;;;2.28;0.60;;;;;;;17.16;68.38;100207.69;4097545;29;20126;-66
2022/09/09 05:47:15;;;;;;;2.35;0.90;;;;;;;17.18;68.22;100194.53;4080669;29;20505;-65
2022/09/09 05:49:18;;;;;;;5.65;1.20;;;;;;;17.23;68.57;100205.81;4109101;28;20032;-66
2022/09/09 05:51:26;;;;;;;5.15;1.50;;;;;;;17.24;68.51;100202.28;4095639;28;20040;-66
2022/09/09 05:53:33;;;;;;;4.53;1.15;;;;;;;17.30;68.01;100198.69;4094900;28;20042;-66
2022/09/09 05:55:38;;;;;;;3.95;0.98;;;;;;;17.39;68.03;100203.78;4109002;28;20050;-66
2022/09/09 05:57:42;;;;;;;5.05;0.85;;;;;;;17.34;68.36;100209.13;4108444;28;20039;-66
2022/09/09 05:59:45;;;;;;;4.63;0.90;;;;;;;17.39;67.85;100216.91;4095535;28;20086;-66
2022/09/09 06:01:48;;;;;;;2.42;0.82;;;;;;;17.29;68.24;100224.13;4091865;28;20039;-65
2022/09/09 06:04:00;;;;;;;6.80;1.02;;;;;;;17.24;67.83;100233.81;4095839;28;20426;-65
2022/09/09 06:06:06;;;;;;;1.52;0.73;;;;;;;17.25;68.04;100232.94;4096364;28;20053;-66
2022/09/09 06:08:10;;;;;;;2.22;0.80;;;;;;;17.22;68.39;100231.22;4081099;29;20222;-61
2022/09/09 06:10:14;;;;;;;2.95;1.00;;;;;;;17.16;68.39;100233.97;4097488;28;20039;-60
2022/09/09 06:12:17;;;;;;;3.05;0.70;;;;;;;17.02;68.75;100228.91;4126484;28;20512;-63
2022/09/09 06:14:20;;;;;;;3.08;1.00;;;;;;;17.06;68.55;100220.09;4080772;29;20067;-62
2022/09/09 06:16:26;;;;;;;1.98;0.77;;;;;;;17.12;68.47;100218.28;4096207;28;20525;-62
2022/09/09 06:18:30;;;;;;;3.30;0.77;;;;;;;17.09;68.75;100217.41;4095790;28;20047;-65
2022/09/09 06:20:34;;;;;;;2.50;0.97;;;;;;;17.24;68.39;100215.44;4115126;28;20454;-65
2022/09/09 06:22:36;;;;;;;1.48;0.70;;;;;;;17.20;68.63;100216.38;4128619;28;20057;-62
2022/09/09 06:24:41;;;;;;;3.85;0.70;;;;;;;17.44;69.30;100215.94;4097317;28;20051;-65
2022/09/09 06:26:45;;;;;;;4.70;0.90;;;;;;;17.66;68.64;100218.19;4095931;28;20041;-64
2022/09/09 06:28:54;;;;;;;1.63;0.60;;;;;;;17.83;67.70;100222.25;4130722;28;20119;-64
2022/09/09 06:30:59;;;;;;;2.78;0.95;;;;;;;17.85;67.52;100221.31;4094797;28;20035;-64
2022/09/09 06:33:03;;;;;;;3.70;1.08;;;;;;;17.99;67.30;100217.56;4099947;28;20043;-65
2022/09/09 06:35:07;;;;;;;3.10;0.98;;;;;;;18.21;66.19;100218.00;4100164;28;20040;-64
2022/09/09 06:37:10;;;;;;;5.35;0.80;;;;;;;18.22;65.87;100223.22;4114276;28;20039;-65
2022/09/09 06:39:18;;;;;;;2.83;0.80;;;;;;;18.24;66.01;100231.13;4097137;28;20579;-65
2022/09/09 06:41:25;;;;;;;4.70;1.10;;;;;;;18.33;65.55;100220.38;4131307;28;20126;-65
2022/09/09 06:43:29;;;;;;;3.78;0.95;;;;;;;18.39;65.51;100225.50;4097352;29;20036;-65
2022/09/09 06:45:32;;;;;;;4.93;0.80;;;;;;;18.44;65.03;100228.91;4100534;28;20043;-65
2022/09/09 06:47:35;;;;;;;2.88;1.00;;;;;;;18.29;65.73;100237.13;4094552;28;20039;-64
2022/09/09 06:49:38;;;;;;;3.97;0.90;;;;;;;18.19;65.89;100241.72;4082070;29;20055;-64
2022/09/09 06:51:44;;;;;;;4.65;0.95;;;;;;;18.29;65.99;100235.34;4096585;28;20493;-65
2022/09/09 06:53:51;;;;;;;3.58;1.02;;;;;;;18.37;65.16;100232.56;4099127;28;20707;-65
2022/09/09 06:55:57;;;;;;;4.75;1.05;;;;;;;18.33;65.20;100225.66;4116018;28;20134;-65
2022/09/09 06:58:02;;;;;;;5.85;1.02;;;;;;;18.34;65.59;100230.00;4105422;28;20055;-64
2022/09/09 07:00:06;;;;;;;3.95;1.00;;;;;;;18.30;65.40;100228.34;4112083;28;20038;-65
2022/09/09 07:02:09;;;;;;;6.07;1.00;;;;;;;18.25;65.57;100232.81;4129766;28;20054;-65
2022/09/09 07:04:13;;;;;;;3.92;0.93;;;;;;;18.45;65.28;100237.66;4113671;28;20306;-65
2022/09/09 07:06:21;;;;;;;3.63;1.38;;;;;;;18.58;64.54;100227.75;4085329;28;20043;-65
2022/09/09 07:08:26;;;;;;;6.32;1.40;;;;;;;18.47;64.85;100231.47;4130050;28;20496;-65
2022/09/09 07:10:29;;;;;;;2.38;0.88;;;;;;;18.43;65.32;100242.09;4112913;28;20412;-65
2022/09/09 07:12:32;;;;;;;7.72;2.05;;;;;;;18.57;65.08;100228.63;4099294;28;20110;-65
2022/09/09 07:14:37;;;;;;;4.47;0.93;;;;;;;18.69;64.58;100224.84;4129926;28;20046;-65
2022/09/09 07:16:44;;;;;;;4.10;0.90;;;;;;;18.73;64.21;100230.00;4114757;28;20402;-65
2022/09/09 07:18:54;;;;;;;2.30;0.93;;;;;;;18.70;64.11;100234.50;4099233;28;20110;-65
2022/09/09 07:20:57;;;;;;;4.63;0.80;;;;;;;18.72;64.23;100230.03;4098614;28;20051;-65
2022/09/09 07:23:01;;;;;;;2.63;1.05;;;;;;;18.85;63.91;100234.09;4111685;28;20536;-65
2022/09/09 07:25:05;;;;;;;4.18;0.98;;;;;;;18.95;63.94;100234.81;4098225;28;20118;-65
2022/09/09 07:27:08;;;;;;;3.55;1.00;;;;;;;18.84;64.12;100235.88;4110669;28;20061;-65
2022/09/09 07:29:13;;;;;;;2.90;0.80;;;;;;;18.83;64.30;100238.56;4107981;28;20039;-65
2022/09/09 07:31:26;;;;;;;2.25;1.13;;;;;;;18.88;63.60;100230.56;4110776;28;20041;-65
2022/09/09 07:33:33;;;;;;;2.95;1.00;;;;;;;18.77;64.59;100229.03;4097883;28;20043;-65
2022/09/09 07:35:36;;;;;;;8.68;1.70;;;;;;;18.70;63.99;100232.72;4088337;28;20042;-64
2022/09/09 07:37:39;;;;;;;5.03;1.33;;;;;;;18.74;64.18;100221.22;4098996;28;20126;-64
2022/09/09 07:39:42;;;;;;;7.75;1.58;;;;;;;18.75;64.44;100236.13;4098059;28;20299;-64
2022/09/09 07:41:47;;;;;;;3.15;0.80;;;;;;;18.72;64.74;100245.84;4096966;28;20114;-65
2022/09/09 07:43:53;;;;;;;4.65;1.13;;;;;;;18.89;64.11;100238.44;4107084;28;20393;-65
2022/09/09 07:45:58;;;;;;;6.53;1.45;;;;;;;19.05;63.95;100238.94;4093334;28;20140;-65
2022/09/09 07:48:03;;;;;;;5.97;1.20;;;;;;;19.02;64.32;100239.88;4098428;28;20050;-70
2022/09/09 07:50:08;;;;;;;7.47;1.23;;;;;;;18.93;64.10;100239.25;4088623;28;20054;-68
2022/09/09 07:52:11;;;;;;;1.95;0.75;;;;;;;18.92;64.47;100232.25;4096142;28;20038;-67
2022/09/09 07:54:23;;;;;;;4.63;1.20;;;;;;;18.96;63.93;100236.53;4097784;28;20046;-68
2022/09/09 07:56:28;;;;;;;5.40;1.30;;;;;;;18.98;64.23;100234.72;4097496;29;20493;-68
2022/09/09 07:58:31;;;;;;;;;;;;;;;18.79;64.07;100236.91;4114773;28;20046;-68
2022/09/09 08:00:43;;;;;;;5.45;1.60;;;;;;;18.77;64.62;100241.34;4099718;28;19923;-68
2022/09/09 08:02:46;;;;;;;8.00;1.75;;;;;;;18.87;64.26;100255.22;4098692;28;20051;-67
2022/09/09 08:04:51;;;;;;;10.52;1.40;;;;;;;18.98;63.73;100266.34;4098554;29;20067;-70
2022/09/09 08:06:59;;;;;;;3.63;1.13;;;;;;;18.92;64.23;100261.22;4115166;28;20094;-68
2022/09/09 08:09:04;;;;;;;3.30;0.85;;;;;;;18.82;64.38;100265.78;4104914;28;20047;-68
2022/09/09 08:11:09;;;;;;;;;;;;;;;18.61;64.25;100261.88;4097087;28;20041;-68
2022/09/09 08:13:13;;;;;;;7.72;1.27;;;;;;;18.87;64.03;100258.69;4096485;28;19958;-68
2022/09/09 08:15:21;;;;;;;6.20;1.20;;;;;;;18.89;64.16;100261.28;4095577;28;20425;-68
2022/09/09 08:17:24;;;;;;;6.57;1.52;;;;;;;18.82;64.22;100261.41;4099291;28;20043;-68
2022/09/09 08:19:29;;;;;;;5.93;1.65;;;;;;;18.84;64.63;100262.22;4113923;28;20066;-68
2022/09/09 08:21:36;;;;;;;8.95;1.73;;;;;;;18.88;65.05;100264.81;4096566;28;20082;-67
2022/09/09 08:23:41;;;;;;;6.40;1.30;;;;;;;18.92;64.81;100266.47;4095225;28;20031;-68
2022/09/09 08:25:45;;;;;;;4.35;1.20;;;;;;;18.94;64.29;100265.56;4123292;28;20022;-67
2022/09/09 08:27:48;;;;;;;3.08;0.90;;;;;;;18.87;64.35;100257.84;4098020;28;20074;-68
2022/09/09 08:29:51;;;;;;;6.03;1.15;;;;;;;18.91;65.08;100255.09;4113629;28;20052;-68
2022/09/09 08:31:57;;;;;;;4.00;1.33;;;;;;;18.91;64.97;100264.75;4105293;28;20133;-68
2022/09/09 08:34:03;;;;;;;4.18;1.15;;;;;;;18.79;64.57;100269.38;4096113;28;20139;-67
2022/09/09 08:36:08;;;;;;;6.00;1.60;;;;;;;18.78;64.94;100267.66;4099816;28;20043;-68
2022/09/09 08:38:14;;;;;;;5.93;1.40;;;;;;;18.77;64.93;100265.03;4126635;28;20034;-68
2022/09/09 08:40:27;;;;;;;6.93;1.65;;;;;;;18.87;65.18;100263.09;4128205;28;20038;-68
2022/09/09 08:42:39;;;;;;;3.13;1.15;;;;;;;18.94;64.89;100270.81;4081568;29;20051;-68
2022/09/09 08:44:58;;;;;;;8.52;1.88;;;;;;;19.05;64.54;100270.56;4106757;28;20476;-68
2022/09/09 08:47:09;;;;;;;7.65;1.58;;;;;;;19.05;64.63;100267.06;4097089;28;20050;-67
2022/09/09 08:49:39;;;;;;;5.25;1.13;;;;;;;19.00;64.85;100264.56;4095909;28;20035;-67
2022/09/09 08:51:43;;;;;;;4.53;1.00;;;;;;;18.91;64.59;100256.84;4129212;28;20077;-68
2022/09/09 08:53:51;;;;;;;4.82;1.27;;;;;;;19.04;64.59;100260.06;4096096;28;20126;-66
2022/09/09 08:56:09;;;;;;;6.38;1.52;;;;;;;19.07;64.70;100260.88;4128111;28;20510;-67
2022/09/09 08:58:20;;;;;;;5.43;1.17;;;;;;;19.04;64.27;100268.84;4094274;28;20035;-67
2022/09/09 09:00:35;;;;;;;4.38;1.40;;;;;;;19.03;64.17;100267.09;4094546;28;20082;-67
2022/09/09 09:02:49;;;;;;;6.82;1.73;;;;;;;19.12;64.27;100261.59;4091918;28;20043;-68
2022/09/09 09:05:06;;;;;;;7.93;1.48;;;;;;;19.19;64.39;100259.69;4097427;28;20094;-68
2022/09/09 09:07:29;;;;;;;7.93;1.42;;;;;;;19.32;64.07;100263.75;4097529;28;20039;-67
2022/09/09 09:09:47;;;;;;;7.53;1.52;;;;;;;19.32;63.74;100265.53;4093851;28;20485;-68
2022/09/09 09:11:54;;;;;;;7.93;1.27;;;;;;;19.33;63.87;100265.50;4109803;28;20156;-67
2022/09/09 09:14:02;;;;;;;5.85;1.52;;;;;;;19.50;63.96;100265.03;4094773;28;20097;-68
2022/09/09 09:16:17;;;;;;;6.07;0.90;;;;;;;19.64;63.22;100264.69;4076732;29;20546;-67
2022/09/09 09:18:20;;;;;;;6.82;1.42;;;;;;;19.64;62.90;100261.19;4097822;29;20528;-68
2022/09/09 09:20:30;;;;;;;5.50;1.20;;;;;;;19.63;62.79;100270.00;4082197;29;20051;-67
2022/09/09 09:22:40;;;;;;;8.10;1.52;;;;;;;19.61;63.06;100271.81;4098120;28;20551;-67
2022/09/09 09:24:52;;;;;;;3.53;1.30;;;;;;;19.64;62.04;100275.25;4127932;28;20108;-67
2022/09/09 09:26:58;;;;;;;5.55;1.33;;;;;;;19.73;61.75;100276.78;4104068;28;20043;-66
2022/09/09 09:29:09;;;;;;;8.85;1.67;;;;;;;19.73;61.70;100273.25;4092227;28;20057;-67
2022/09/09 09:31:13;;;;;;;6.28;1.25;;;;;;;19.86;61.10;100257.09;4093863;29;20402;-67
2022/09/09 09:33:25;;;;;;;6.30;1.17;;;;;;;19.91;60.76;100261.38;4097497;28;20103;-68
2022/09/09 09:35:28;;;;;;;6.70;1.58;;;;;;;19.76;61.13;100249.47;4079215;29;20417;-68
2022/09/09 09:37:34;;;;;;;7.40;1.70;;;;;;;19.75;61.88;100245.09;4098164;28;20040;-67
2022/09/09 09:39:40;;;;;;;6.00;2.03;;;;;;;19.71;62.69;100258.34;4129100;28;20050;-66
2022/09/09 09:42:13;;;;;;;8.35;1.35;;;;;;;19.75;61.73;100264.41;4094202;29;20051;-67
2022/09/09 09:44:25;;;;;;;9.20;1.55;;;;;;;19.62;61.87;100269.13;4097477;29;20043;-67
2022/09/09 09:46:28;;;;;;;4.78;1.40;;;;;;;19.56;61.71;100273.72;4080517;29;20036;-67
2022/09/09 09:48:42;;;;;;;5.38;1.20;;;;;;;19.36;62.65;100277.72;4097829;29;20094;-67
2022/09/09 09:50:51;;;;;;;7.55;1.60;;;;;;;19.38;62.89;100289.09;4097801;29;20044;-67
2022/09/09 09:52:56;;;;;;;8.50;1.48;;;;;;;19.31;63.16;100290.16;4098095;28;20147;-67